Time;durP1;ratioP1;P1;durP2;ratioP2;P2;SDS_P1;SDS_P2;PMS_P1;PMS_P2;Temp;Humidity;BMP_temperature;BMP_pressure;BME280_temperature;BME280_humidity;BME280_pressure;Samples;Min_cycle;Max_cycle;Signal;HPM_P1;HPM_P2
2023/12/31 00:01:34;;;;;;;6.35;2.40;;;14.20;1.00;;;;;;4976405;28;20034;-76
2023/12/31 00:03:59;;;;;;;6.50;2.38;;;14.80;1.00;;;;;;4968806;28;20042;-76
2023/12/31 00:06:26;;;;;;;5.38;2.50;;;14.00;1.00;;;;;;4968435;28;20038;-76
2023/12/31 00:08:51;;;;;;;6.18;2.30;;;14.80;1.00;;;;;;4951773;28;20045;-76
2023/12/31 00:11:17;;;;;;;5.57;2.50;;;13.90;1.00;;;;;;4970790;28;20632;-76
2023/12/31 00:13:43;;;;;;;4.82;2.47;;;14.10;99.90;;;;;;4973581;28;20387;-76
2023/12/31 00:16:13;;;;;;;5.32;2.10;;;14.30;99.90;;;;;;4972691;28;20043;-76
2023/12/31 00:18:39;;;;;;;6.10;2.47;;;14.10;99.90;;;;;;4987660;28;20038;-76
2023/12/31 00:21:04;;;;;;;6.53;2.47;;;14.30;99.90;;;;;;4975050;28;20042;-76
2023/12/31 00:23:31;;;;;;;6.55;2.85;;;14.20;1.00;;;;;;4971760;28;20455;-76
2023/12/31 00:25:56;;;;;;;5.18;2.15;;;14.30;1.00;;;;;;4970749;28;20030;-75
2023/12/31 00:28:22;;;;;;;6.38;2.15;;;14.30;1.00;;;;;;4971462;28;20043;-75
2023/12/31 00:30:47;;;;;;;5.55;2.38;;;14.00;1.00;;;;;;4976591;28;20046;-76
2023/12/31 00:33:13;;;;;;;4.72;2.00;;;14.40;1.00;;;;;;4973125;28;20447;-75
2023/12/31 00:35:39;;;;;;;5.45;2.30;;;14.10;1.00;;;;;;4970584;28;20054;-76
2023/12/31 00:38:04;;;;;;;5.50;1.98;;;13.70;99.90;;;;;;4971301;28;20050;-76
2023/12/31 00:40:30;;;;;;;5.82;2.22;;;14.30;99.90;;;;;;4971583;28;20499;-76
2023/12/31 00:42:55;;;;;;;5.50;2.00;;;14.10;99.90;;;;;;4969783;28;20035;-75
2023/12/31 00:45:21;;;;;;;4.90;1.90;;;14.40;99.90;;;;;;4970790;28;20144;-76
2023/12/31 00:47:46;;;;;;;5.57;2.15;;;14.40;99.90;;;;;;4986446;28;20043;-76
2023/12/31 00:50:12;;;;;;;4.60;1.83;;;14.40;1.00;;;;;;4980495;28;20046;-76
2023/12/31 00:52:38;;;;;;;5.32;1.95;;;14.20;1.00;;;;;;4974440;28;20110;-76
2023/12/31 00:55:04;;;;;;;4.13;1.63;;;14.40;1.00;;;;;;4974586;28;20117;-75
2023/12/31 00:57:29;;;;;;;4.63;1.77;;;14.30;99.90;;;;;;4955264;28;20097;-76
2023/12/31 00:59:55;;;;;;;5.03;2.05;;;14.20;99.90;;;;;;4973113;28;20045;-76
2023/12/31 01:02:21;;;;;;;5.65;1.80;;;14.70;99.90;;;;;;4973988;28;20039;-76
2023/12/31 01:04:47;;;;;;;4.80;1.80;;;14.30;99.90;;;;;;4973353;28;20402;-76
2023/12/31 01:07:13;;;;;;;5.93;2.08;;;14.90;99.90;;;;;;4971832;28;20054;-76
2023/12/31 01:09:40;;;;;;;5.10;2.25;;;15.00;1.00;;;;;;4972314;28;20061;-75
2023/12/31 01:12:06;;;;;;;5.22;1.50;;;14.10;99.90;;;;;;4970453;28;20069;-76
2023/12/31 01:14:31;;;;;;;4.47;1.67;;;14.40;1.00;;;;;;4971186;28;20081;-76
2023/12/31 01:16:57;;;;;;;4.57;1.58;;;14.70;99.90;;;;;;4972276;28;20510;-76
2023/12/31 01:19:23;;;;;;;5.57;1.88;;;14.60;1.00;;;;;;4971560;28;20618;-76
2023/12/31 01:21:49;;;;;;;5.28;2.17;;;14.50;99.90;;;;;;4973649;28;20038;-76
2023/12/31 01:24:15;;;;;;;4.85;1.75;;;14.20;99.90;;;;;;4970339;28;20035;-76
2023/12/31 01:26:40;;;;;;;4.20;1.55;;;14.50;99.90;;;;;;4962377;28;20085;-76
2023/12/31 01:29:06;;;;;;;4.90;1.77;;;14.70;99.90;;;;;;4959578;28;20166;-76
2023/12/31 01:31:31;;;;;;;5.10;1.63;;;14.20;99.90;;;;;;4964271;28;20060;-76
2023/12/31 01:33:57;;;;;;;4.13;1.73;;;14.80;1.00;;;;;;4973447;28;20090;-76
2023/12/31 01:36:25;;;;;;;4.15;1.58;;;14.30;1.00;;;;;;4968020;28;20047;-76
2023/12/31 01:38:51;;;;;;;5.20;2.00;;;14.40;99.90;;;;;;4971551;28;20046;-75
2023/12/31 01:41:16;;;;;;;4.22;1.83;;;14.00;99.90;;;;;;4969869;28;20119;-76
2023/12/31 01:43:42;;;;;;;5.13;1.30;;;14.60;99.90;;;;;;4959738;28;20047;-76
2023/12/31 01:46:10;;;;;;;4.75;1.88;;;14.60;99.90;;;;;;4961888;28;20046;-76
2023/12/31 01:48:36;;;;;;;5.80;1.70;;;14.80;1.00;;;;;;4963323;28;20043;-76
2023/12/31 01:51:02;;;;;;;4.25;1.58;;;14.30;99.90;;;;;;4962860;28;20056;-76
2023/12/31 01:53:29;;;;;;;4.38;1.50;;;14.50;99.90;;;;;;4973719;28;20176;-76
2023/12/31 01:55:57;;;;;;;3.70;1.30;;;14.20;1.00;;;;;;4973658;28;20051;-76
2023/12/31 01:58:23;;;;;;;3.60;1.20;;;14.70;99.90;;;;;;4953462;28;20054;-76
2023/12/31 02:00:49;;;;;;;4.70;1.52;;;14.60;99.90;;;;;;4969005;28;20031;-76
2023/12/31 02:03:16;;;;;;;4.00;1.50;;;14.20;99.90;;;;;;4971091;28;20035;-76
2023/12/31 02:05:42;;;;;;;5.22;1.60;;;14.40;1.00;;;;;;4969804;28;20165;-76
2023/12/31 02:08:07;;;;;;;4.68;1.70;;;14.50;99.90;;;;;;4969486;28;20070;-76
2023/12/31 02:10:33;;;;;;;4.05;1.40;;;14.50;99.90;;;;;;4969352;28;20045;-76
2023/12/31 02:13:00;;;;;;;4.22;1.50;;;15.00;1.00;;;;;;4972801;28;20039;-76
2023/12/31 02:15:33;;;;;;;4.05;1.20;;;14.50;1.00;;;;;;4954916;28;20129;-76
2023/12/31 02:18:00;;;;;;;3.67;1.40;;;14.40;99.90;;;;;;4968141;28;20402;-76
2023/12/31 02:20:26;;;;;;;4.43;1.50;;;14.00;99.90;;;;;;4968974;28;20047;-76
2023/12/31 02:22:52;;;;;;;4.78;1.25;;;14.40;99.90;;;;;;4971156;28;20062;-76
2023/12/31 02:25:22;;;;;;;3.75;1.23;;;14.70;99.90;;;;;;4969136;28;20039;-76
2023/12/31 02:27:48;;;;;;;3.53;1.33;;;14.60;99.90;;;;;;4985145;28;20046;-76
2023/12/31 02:30:13;;;;;;;4.90;1.52;;;14.40;99.90;;;;;;4967486;28;20039;-76
2023/12/31 02:32:39;;;;;;;3.35;1.23;;;14.40;99.90;;;;;;4961291;28;20043;-75
2023/12/31 02:35:05;;;;;;;3.85;1.40;;;14.60;99.90;;;;;;4968329;28;20046;-76
2023/12/31 02:37:31;;;;;;;3.80;1.30;;;14.20;99.90;;;;;;4971050;28;20502;-76
2023/12/31 02:39:56;;;;;;;3.65;1.27;;;14.10;99.90;;;;;;4958103;28;20056;-76
2023/12/31 02:42:22;;;;;;;3.60;1.20;;;13.90;99.90;;;;;;4981502;28;20075;-76
2023/12/31 02:44:48;;;;;;;3.90;1.38;;;14.30;99.90;;;;;;4967265;28;20043;-76
2023/12/31 02:47:14;;;;;;;3.08;1.30;;;14.70;99.90;;;;;;4959711;28;20133;-76
2023/12/31 02:49:39;;;;;;;4.15;1.40;;;14.50;99.90;;;;;;4956959;28;20085;-76
2023/12/31 02:52:05;;;;;;;4.25;1.38;;;14.00;99.90;;;;;;4969514;28;20487;-76
2023/12/31 02:54:31;;;;;;;4.75;1.48;;;14.50;99.90;;;;;;4966860;28;20121;-76
2023/12/31 02:56:58;;;;;;;4.30;1.33;;;14.60;99.90;;;;;;4956871;28;20046;-76
2023/12/31 02:59:24;;;;;;;2.53;0.90;;;14.60;99.90;;;;;;4950606;28;20375;-76
2023/12/31 03:01:50;;;;;;;4.00;1.45;;;14.40;99.90;;;;;;4941377;28;20031;-76
2023/12/31 03:04:16;;;;;;;4.53;1.20;;;12.80;99.90;;;;;;4951861;28;20118;-75
2023/12/31 03:06:41;;;;;;;3.45;1.10;;;14.40;99.90;;;;;;4949548;28;20045;-75
2023/12/31 03:09:07;;;;;;;3.60;1.27;;;14.50;99.90;;;;;;4960946;28;20652;-76
2023/12/31 03:11:36;;;;;;;4.15;1.30;;;15.20;99.90;;;;;;4953230;28;20050;-76
2023/12/31 03:14:02;;;;;;;4.75;1.50;;;14.80;99.90;;;;;;4951630;28;20163;-75
2023/12/31 03:16:27;;;;;;;3.92;1.38;;;14.60;99.90;;;;;;4965063;28;20518;-76
2023/12/31 03:18:53;;;;;;;3.67;1.20;;;14.40;99.90;;;;;;4954241;28;20541;-76
2023/12/31 03:21:19;;;;;;;3.17;1.10;;;14.50;99.90;;;;;;4958986;28;20039;-76
2023/12/31 03:23:45;;;;;;;3.53;1.23;;;14.40;99.90;;;;;;4952807;28;20047;-76
2023/12/31 03:26:11;;;;;;;3.95;1.17;;;14.30;99.90;;;;;;4954196;28;20041;-75
2023/12/31 03:28:37;;;;;;;4.40;1.42;;;14.40;99.90;;;;;;4958318;28;20081;-76
2023/12/31 03:31:03;;;;;;;3.65;1.20;;;14.60;99.90;;;;;;4963345;28;20047;-76
2023/12/31 03:33:29;;;;;;;3.88;1.30;;;13.90;99.90;;;;;;4960318;28;20066;-76
2023/12/31 03:35:55;;;;;;;3.80;1.08;;;14.70;99.90;;;;;;4968134;28;20083;-76
2023/12/31 03:38:20;;;;;;;3.72;1.20;;;14.60;99.90;;;;;;4971601;28;20494;-75
2023/12/31 03:40:46;;;;;;;3.45;1.13;;;14.30;99.90;;;;;;4970075;28;20031;-76
2023/12/31 03:43:12;;;;;;;3.50;1.20;;;14.30;99.90;;;;;;4968683;28;20042;-76
2023/12/31 03:45:37;;;;;;;3.47;1.15;;;14.70;99.90;;;;;;4971318;28;20041;-75
2023/12/31 03:48:03;;;;;;;2.88;1.00;;;14.60;99.90;;;;;;4956445;28;20051;-76
2023/12/31 03:50:29;;;;;;;5.07;1.40;;;14.40;99.90;;;;;;4974410;28;20075;-76
2023/12/31 03:52:54;;;;;;;2.47;1.00;;;14.60;99.90;;;;;;4973116;28;20053;-76
2023/12/31 03:55:20;;;;;;;3.63;1.25;;;14.40;99.90;;;;;;4973494;28;20482;-76
2023/12/31 03:57:45;;;;;;;3.65;1.30;;;14.40;99.90;;;;;;4973105;28;20105;-75
2023/12/31 04:00:11;;;;;;;3.53;1.13;;;14.40;99.90;;;;;;4956512;28;20383;-76
2023/12/31 04:02:37;;;;;;;2.80;1.00;;;14.40;99.90;;;;;;4972374;28;20046;-76
2023/12/31 04:05:03;;;;;;;3.33;1.08;;;14.80;99.90;;;;;;4969891;28;20498;-76
2023/12/31 04:07:29;;;;;;;3.50;1.00;;;14.60;99.90;;;;;;4957568;28;20038;-76
2023/12/31 04:09:54;;;;;;;3.20;1.00;;;14.60;99.90;;;;;;4955414;28;20056;-76
2023/12/31 04:12:20;;;;;;;2.90;1.00;;;14.40;99.90;;;;;;4966968;28;20042;-75
2023/12/31 04:14:45;;;;;;;3.53;1.10;;;14.30;99.90;;;;;;4955235;28;20462;-76
2023/12/31 04:17:11;;;;;;;2.78;1.05;;;14.80;99.90;;;;;;4964387;28;20041;-77
2023/12/31 04:19:37;;;;;;;2.45;0.90;;;14.90;99.90;;;;;;4964932;28;20034;-77
2023/12/31 04:22:02;;;;;;;3.00;0.98;;;14.20;99.90;;;;;;4968503;28;20047;-76
2023/12/31 04:24:28;;;;;;;3.78;1.10;;;14.40;99.90;;;;;;4964553;28;20117;-76
2023/12/31 04:26:53;;;;;;;4.55;1.35;;;14.40;99.90;;;;;;4967437;28;20030;-76
2023/12/31 04:29:19;;;;;;;3.75;1.05;;;14.30;99.90;;;;;;4967004;28;20462;-76
2023/12/31 04:31:47;;;;;;;4.68;1.40;;;13.90;99.90;;;;;;4963877;28;20069;-76
2023/12/31 04:34:13;;;;;;;2.80;0.90;;;14.50;99.90;;;;;;4955697;28;20454;-76
2023/12/31 04:36:45;;;;;;;3.72;0.85;;;14.40;99.90;;;;;;4970598;28;20058;-76
2023/12/31 04:39:12;;;;;;;2.67;0.98;;;14.50;99.90;;;;;;4955109;28;20047;-75
2023/12/31 04:41:37;;;;;;;2.97;1.10;;;14.40;99.90;;;;;;4971249;28;20458;-76
2023/12/31 04:44:03;;;;;;;3.03;1.08;;;14.50;99.90;;;;;;4955393;28;20039;-76
2023/12/31 04:46:29;;;;;;;3.38;1.00;;;14.00;99.90;;;;;;4973425;28;20110;-75
2023/12/31 04:48:54;;;;;;;3.80;1.23;;;14.60;99.90;;;;;;4955522;28;20094;-76
2023/12/31 04:51:28;;;;;;;3.35;1.10;;;14.50;99.90;;;;;;4964657;28;20050;-76
2023/12/31 04:53:54;;;;;;;3.20;1.02;;;14.80;99.90;;;;;;4988073;28;20051;-75
2023/12/31 04:56:21;;;;;;;2.97;1.17;;;13.90;99.90;;;;;;4955899;28;20054;-76
2023/12/31 04:58:52;;;;;;;3.13;1.00;;;14.10;99.90;;;;;;4967555;28;20674;-76
2023/12/31 05:01:18;;;;;;;3.72;1.17;;;14.40;99.90;;;;;;4971927;28;20469;-76
2023/12/31 05:03:45;;;;;;;3.50;1.23;;;14.00;99.90;;;;;;4959695;28;20121;-75
2023/12/31 05:06:15;;;;;;;3.47;1.15;;;14.00;99.90;;;;;;4968105;28;20396;-76
2023/12/31 05:08:44;;;;;;;3.58;1.20;;;14.50;99.90;;;;;;4969778;28;20171;-76
2023/12/31 05:11:11;;;;;;;12.43;1.33;;;14.30;99.90;;;;;;4963939;28;20134;-76
2023/12/31 05:13:38;;;;;;;3.72;1.30;;;14.70;99.90;;;;;;4967913;28;20039;-75
2023/12/31 05:16:06;;;;;;;3.90;1.15;;;14.00;99.90;;;;;;4970482;28;20047;-76
2023/12/31 05:18:31;;;;;;;2.95;0.90;;;14.10;99.90;;;;;;4971162;28;20043;-76
2023/12/31 05:20:58;;;;;;;3.55;1.00;;;14.00;99.90;;;;;;4961335;28;21816;-76
2023/12/31 05:23:23;;;;;;;2.75;1.00;;;14.60;99.90;;;;;;4952030;28;20093;-75
2023/12/31 05:25:50;;;;;;;3.53;1.10;;;14.50;99.90;;;;;;4957455;28;20057;-75
2023/12/31 05:28:16;;;;;;;3.42;1.00;;;14.40;99.90;;;;;;4968638;28;20055;-75
2023/12/31 05:30:42;;;;;;;2.83;1.10;;;14.30;99.90;;;;;;4961681;28;20049;-76
2023/12/31 05:33:10;;;;;;;2.65;1.00;;;14.00;99.90;;;;;;4957066;28;20734;-76
2023/12/31 05:35:35;;;;;;;3.05;1.10;;;14.40;99.90;;;;;;4967416;28;20046;-76
2023/12/31 05:38:01;;;;;;;4.15;1.00;;;14.20;99.90;;;;;;4969648;28;20047;-75
2023/12/31 05:40:27;;;;;;;5.18;1.75;;;14.20;99.90;;;;;;4971161;28;20665;-75
2023/12/31 05:42:53;;;;;;;2.47;1.00;;;14.60;99.90;;;;;;4961220;28;20037;-75
2023/12/31 05:45:19;;;;;;;5.53;1.65;;;14.20;99.90;;;;;;4968322;28;20046;-75
2023/12/31 05:47:46;;;;;;;3.88;1.00;;;14.70;99.90;;;;;;4970605;28;20081;-75
2023/12/31 05:50:12;;;;;;;3.40;1.10;;;14.10;99.90;;;;;;4956586;28;20053;-76
2023/12/31 05:52:37;;;;;;;3.90;1.15;;;14.00;99.90;;;;;;4986944;28;20409;-76
2023/12/31 05:55:04;;;;;;;3.10;1.00;;;13.90;99.90;;;;;;4970330;28;20047;-74
2023/12/31 05:57:29;;;;;;;3.47;1.30;;;14.50;99.90;;;;;;4969661;28;20035;-75
2023/12/31 05:59:55;;;;;;;2.60;1.00;;;14.30;99.90;;;;;;4953041;28;20456;-75
2023/12/31 06:02:20;;;;;;;3.30;1.10;;;14.20;99.90;;;;;;4972043;28;20502;-75
2023/12/31 06:04:46;;;;;;;2.65;1.00;;;14.30;99.90;;;;;;4970507;28;20046;-77
2023/12/31 06:07:11;;;;;;;3.83;1.00;;;14.30;99.90;;;;;;4964974;28;20046;-76
2023/12/31 06:09:37;;;;;;;3.00;1.00;;;14.30;99.90;;;;;;4965641;28;20115;-76
2023/12/31 06:12:04;;;;;;;3.22;1.02;;;14.30;99.90;;;;;;4971702;28;20526;-76
2023/12/31 06:14:29;;;;;;;3.15;1.00;;;14.30;99.90;;;;;;4969997;28;20115;-76
2023/12/31 06:16:55;;;;;;;2.88;1.10;;;12.60;99.90;;;;;;4967129;28;20153;-76
2023/12/31 06:19:21;;;;;;;3.65;1.10;;;13.40;99.90;;;;;;4943752;28;20069;-75
2023/12/31 06:21:46;;;;;;;3.92;1.10;;;13.80;99.90;;;;;;4968124;28;20133;-76
2023/12/31 06:24:12;;;;;;;4.00;1.30;;;14.20;99.90;;;;;;4969642;28;20047;-76
2023/12/31 06:26:37;;;;;;;3.80;1.10;;;14.50;99.90;;;;;;4969149;28;20043;-76
2023/12/31 06:29:03;;;;;;;3.05;1.05;;;14.70;99.90;;;;;;4970604;28;20047;-76
2023/12/31 06:31:29;;;;;;;2.63;0.95;;;14.50;99.90;;;;;;5002474;28;20042;-77
2023/12/31 06:33:54;;;;;;;2.53;0.98;;;14.60;99.90;;;;;;4970825;28;20053;-76
2023/12/31 06:36:20;;;;;;;3.47;1.20;;;15.00;99.90;;;;;;4969708;28;20402;-76
2023/12/31 06:38:45;;;;;;;3.40;1.08;;;13.80;99.90;;;;;;4968947;28;20054;-76
2023/12/31 06:41:11;;;;;;;4.25;1.10;;;13.80;99.90;;;;;;4969863;28;20485;-76
2023/12/31 06:43:38;;;;;;;4.07;1.17;;;14.10;99.90;;;;;;4971771;28;20035;-76
2023/12/31 06:46:04;;;;;;;3.70;1.10;;;14.00;99.90;;;;;;4972972;28;20139;-76
2023/12/31 06:48:30;;;;;;;4.07;1.10;;;14.30;99.90;;;;;;4969029;28;20130;-76
2023/12/31 06:50:56;;;;;;;3.13;1.20;;;14.10;99.90;;;;;;4967792;28;20122;-76
2023/12/31 06:53:22;;;;;;;4.05;1.30;;;13.90;99.90;;;;;;4962051;28;20041;-76
2023/12/31 06:55:47;;;;;;;3.83;1.20;;;14.60;99.90;;;;;;4968420;28;20043;-76
2023/12/31 06:58:14;;;;;;;4.40;1.20;;;14.30;99.90;;;;;;4966782;28;20039;-76
2023/12/31 07:00:40;;;;;;;3.28;1.30;;;14.10;99.90;;;;;;4962713;28;20121;-76
2023/12/31 07:03:06;;;;;;;3.17;1.10;;;14.00;99.90;;;;;;4969179;28;20129;-76
2023/12/31 07:05:31;;;;;;;3.08;1.10;;;14.70;99.90;;;;;;4966891;28;20450;-76
2023/12/31 07:07:57;;;;;;;3.30;1.27;;;14.50;99.90;;;;;;4955923;28;20055;-76
2023/12/31 07:10:23;;;;;;;3.17;1.10;;;14.20;99.90;;;;;;4982583;28;20567;-76
2023/12/31 07:12:49;;;;;;;3.95;1.35;;;14.10;99.90;;;;;;4967479;28;20097;-76
2023/12/31 07:15:15;;;;;;;5.60;1.23;;;12.70;99.90;;;;;;4968643;28;20058;-76
2023/12/31 07:17:41;;;;;;;5.90;1.45;;;14.80;99.90;;;;;;4968269;28;20082;-76
2023/12/31 07:20:07;;;;;;;3.55;1.20;;;13.90;99.90;;;;;;4976402;28;20066;-76
2023/12/31 07:22:33;;;;;;;3.83;1.40;;;14.20;99.90;;;;;;4955997;28;20090;-75
2023/12/31 07:25:00;;;;;;;3.55;1.35;;;14.50;99.90;;;;;;4975153;28;20039;-76
2023/12/31 07:27:26;;;;;;;4.53;1.60;;;14.30;99.90;;;;;;4956740;28;20039;-76
2023/12/31 07:29:52;;;;;;;3.95;1.38;;;14.30;99.90;;;;;;4951644;28;20094;-76
2023/12/31 07:32:18;;;;;;;4.43;1.63;;;14.30;99.90;;;;;;4973857;28;20039;-76
2023/12/31 07:34:44;;;;;;;5.57;1.90;;;14.60;99.90;;;;;;4956697;28;20073;-76
2023/12/31 07:37:09;;;;;;;10.30;2.53;;;14.40;99.90;;;;;;4973387;28;20041;-76
2023/12/31 07:39:35;;;;;;;6.40;2.20;;;14.60;99.90;;;;;;4973102;28;20074;-76
2023/12/31 07:42:03;;;;;;;14.63;2.65;;;14.20;99.90;;;;;;4972107;28;20074;-76
2023/12/31 07:44:29;;;;;;;7.55;2.08;;;14.60;99.90;;;;;;4972351;28;20074;-77
2023/12/31 07:46:54;;;;;;;13.95;4.43;;;14.30;99.90;;;;;;4966523;28;20057;-76
2023/12/31 07:49:20;;;;;;;13.00;4.05;;;14.40;99.90;;;;;;4973019;28;20050;-76
2023/12/31 07:51:51;;;;;;;11.95;4.30;;;14.40;99.90;;;;;;4951688;28;20053;-76
2023/12/31 07:54:17;;;;;;;11.20;3.83;;;14.10;99.90;;;;;;4987158;28;20047;-76
2023/12/31 07:56:42;;;;;;;14.32;3.97;;;14.40;99.90;;;;;;4971881;28;20405;-76
2023/12/31 07:59:08;;;;;;;12.82;4.03;;;14.70;99.90;;;;;;4969948;28;20074;-76
2023/12/31 08:01:34;;;;;;;12.32;3.25;;;14.10;99.90;;;;;;4954677;28;20046;-76
2023/12/31 08:04:00;;;;;;;10.77;3.60;;;14.60;99.90;;;;;;4971424;28;20031;-76
2023/12/31 08:06:26;;;;;;;8.75;3.28;;;14.70;99.90;;;;;;4972251;28;20129;-76
2023/12/31 08:08:52;;;;;;;7.38;2.33;;;14.20;99.90;;;;;;4966071;28;20058;-76
2023/12/31 08:11:20;;;;;;;8.40;2.75;;;14.40;99.90;;;;;;4952857;28;20038;-76
2023/12/31 08:13:46;;;;;;;8.98;3.15;;;14.50;99.90;;;;;;4965902;28;20050;-76
2023/12/31 08:16:12;;;;;;;7.30;2.25;;;13.90;99.90;;;;;;4969562;28;20042;-76
2023/12/31 08:18:38;;;;;;;8.05;2.70;;;14.10;99.90;;;;;;4969224;28;20039;-76
2023/12/31 08:21:04;;;;;;;9.00;2.45;;;14.50;99.90;;;;;;4969054;28;20062;-76
2023/12/31 08:23:29;;;;;;;6.07;1.77;;;15.20;99.90;;;;;;4968199;28;20058;-76
2023/12/31 08:25:56;;;;;;;8.65;2.28;;;14.50;99.90;;;;;;4972039;28;20066;-76
2023/12/31 08:28:22;;;;;;;4.97;1.73;;;14.80;99.90;;;;;;4971623;28;20050;-76
2023/12/31 08:30:48;;;;;;;5.55;1.88;;;14.60;99.90;;;;;;4969177;28;20061;-76
2023/12/31 08:33:14;;;;;;;5.90;1.73;;;14.80;99.90;;;;;;4970156;28;20034;-76
2023/12/31 08:35:41;;;;;;;7.22;1.70;;;15.10;99.90;;;;;;4952871;28;20045;-75
2023/12/31 08:38:07;;;;;;;4.55;1.52;;;14.40;99.90;;;;;;4965614;28;20039;-76
2023/12/31 08:40:33;;;;;;;5.43;1.95;;;14.80;99.90;;;;;;4971679;28;20109;-76
2023/12/31 08:42:58;;;;;;;5.63;1.80;;;14.50;99.90;;;;;;4971991;28;20407;-76
2023/12/31 08:45:24;;;;;;;5.43;1.67;;;14.60;99.90;;;;;;4966525;28;20105;-76
2023/12/31 08:47:49;;;;;;;4.40;1.58;;;14.40;99.90;;;;;;4967563;28;20073;-76
2023/12/31 08:50:15;;;;;;;5.53;1.50;;;14.60;99.90;;;;;;4958576;28;20131;-76
2023/12/31 08:52:45;;;;;;;7.55;2.38;;;14.60;99.90;;;;;;4965198;28;20094;-76
2023/12/31 08:55:11;;;;;;;12.52;3.10;;;14.50;99.90;;;;;;4966183;28;20105;-76
2023/12/31 08:57:43;;;;;;;16.45;4.70;;;14.30;99.90;;;;;;4966349;28;20499;-76
2023/12/31 09:00:09;;;;;;;20.15;5.35;;;15.20;99.90;;;;;;4984457;28;20030;-77
2023/12/31 09:02:35;;;;;;;11.93;4.25;;;14.50;99.90;;;;;;4983486;28;20097;-76
2023/12/31 09:05:01;;;;;;;11.73;4.25;;;14.80;99.90;;;;;;4959310;28;20039;-76
2023/12/31 09:07:27;;;;;;;12.85;3.30;;;15.30;99.90;;;;;;4982050;28;20031;-76
2023/12/31 09:09:52;;;;;;;7.45;2.50;;;14.70;99.90;;;;;;4969146;28;20388;-76
2023/12/31 09:12:18;;;;;;;7.80;2.70;;;15.10;99.90;;;;;;4968504;28;20041;-76
2023/12/31 09:14:44;;;;;;;9.95;2.60;;;14.40;99.90;;;;;;4952231;28;20046;-77
2023/12/31 09:17:10;;;;;;;9.43;3.83;;;15.20;1.00;;;;;;4951696;28;20125;-76
2023/12/31 09:19:37;;;;;;;8.10;2.40;;;14.40;99.90;;;;;;4949457;28;20039;-76
2023/12/31 09:22:03;;;;;;;6.00;2.40;;;14.00;99.90;;;;;;4963674;28;20478;-76
2023/12/31 09:24:29;;;;;;;5.40;2.58;;;14.30;99.90;;;;;;4948531;28;20065;-76
2023/12/31 09:26:54;;;;;;;5.00;2.00;;;14.40;99.90;;;;;;4966114;28;20042;-76
2023/12/31 09:29:20;;;;;;;5.53;2.00;;;14.70;99.90;;;;;;4964618;28;20395;-76
2023/12/31 09:31:46;;;;;;;4.95;2.20;;;14.60;99.90;;;;;;4967805;28;20043;-77
2023/12/31 09:34:11;;;;;;;5.68;2.20;;;14.30;99.90;;;;;;4966711;28;20053;-76
2023/12/31 09:36:37;;;;;;;5.85;2.13;;;15.00;99.90;;;;;;4967036;28;20042;-76
2023/12/31 09:39:03;;;;;;;5.05;2.22;;;14.60;99.90;;;;;;4960535;28;20398;-76
2023/12/31 09:41:29;;;;;;;5.95;2.08;;;14.50;99.90;;;;;;4983225;28;20035;-76
2023/12/31 09:43:55;;;;;;;5.10;2.10;;;14.50;99.90;;;;;;4967960;28;20039;-76
2023/12/31 09:46:24;;;;;;;4.78;2.30;;;14.50;99.90;;;;;;4966893;28;20042;-77
2023/12/31 09:48:51;;;;;;;5.30;2.00;;;14.70;99.90;;;;;;4964629;28;20101;-76
2023/12/31 09:51:21;;;;;;;5.38;2.50;;;14.50;99.90;;;;;;4962730;28;20054;-77
2023/12/31 09:53:49;;;;;;;4.82;2.00;;;14.50;99.90;;;;;;4971894;28;20145;-77
2023/12/31 09:56:17;;;;;;;6.63;2.13;;;14.30;99.90;;;;;;4966206;28;20039;-75
2023/12/31 09:58:43;;;;;;;5.05;2.30;;;13.80;99.90;;;;;;4995481;28;20049;-76
2023/12/31 10:01:09;;;;;;;5.53;2.38;;;14.10;99.90;;;;;;4970261;28;20038;-76
2023/12/31 10:03:38;;;;;;;6.45;2.95;;;14.60;99.90;;;;;;4969306;28;20039;-76
2023/12/31 10:06:05;;;;;;;5.63;2.00;;;14.30;99.90;;;;;;4969596;28;20046;-76
2023/12/31 10:08:31;;;;;;;6.38;2.40;;;14.30;99.90;;;;;;4971750;28;20049;-76
2023/12/31 10:10:58;;;;;;;12.48;2.33;;;14.10;99.90;;;;;;4974677;28;20047;-77
2023/12/31 10:13:23;;;;;;;7.90;2.42;;;14.10;99.90;;;;;;4970032;28;20031;-76
2023/12/31 10:15:51;;;;;;;4.97;2.17;;;13.60;99.90;;;;;;4973029;28;20038;-76
2023/12/31 10:18:17;;;;;;;5.45;2.20;;;14.10;99.90;;;;;;4968348;28;20042;-76
2023/12/31 10:20:42;;;;;;;5.05;2.17;;;13.70;99.90;;;;;;4968438;28;20449;-76
2023/12/31 10:23:08;;;;;;;5.80;2.17;;;14.50;99.90;;;;;;4976673;28;20089;-77
2023/12/31 10:25:33;;;;;;;6.47;2.13;;;14.20;99.90;;;;;;4971295;28;20066;-77
2023/12/31 10:27:59;;;;;;;7.88;2.47;;;14.90;99.90;;;;;;4968932;28;20374;-76
2023/12/31 10:30:26;;;;;;;5.25;2.10;;;14.30;99.90;;;;;;4969582;28;21389;-76
2023/12/31 10:32:51;;;;;;;6.47;2.70;;;14.40;99.90;;;;;;4964337;28;20045;-77
2023/12/31 10:35:20;;;;;;;7.95;2.47;;;14.30;99.90;;;;;;4973713;28;20081;-76
2023/12/31 10:37:46;;;;;;;8.82;2.70;;;13.80;99.90;;;;;;4969246;28;20410;-76
2023/12/31 10:40:22;;;;;;;7.38;2.80;;;14.10;99.90;;;;;;4973278;28;20449;-76
2023/12/31 10:42:55;;;;;;;7.68;2.75;;;13.80;99.90;;;;;;4967633;28;20043;-76
2023/12/31 10:45:22;;;;;;;6.88;2.80;;;14.40;99.90;;;;;;4968412;28;20495;-77
2023/12/31 10:47:53;;;;;;;6.70;2.92;;;14.40;99.90;;;;;;4967789;28;20118;-77
2023/12/31 10:50:24;;;;;;;6.50;2.50;;;14.30;99.90;;;;;;4967582;28;20038;-77
2023/12/31 10:52:56;;;;;;;7.05;2.30;;;14.30;99.90;;;;;;4967917;28;20038;-76
2023/12/31 10:55:23;;;;;;;6.10;2.28;;;14.20;99.90;;;;;;4964209;28;20132;-76
2023/12/31 10:57:50;;;;;;;5.75;2.30;;;14.50;99.90;;;;;;4965568;28;20035;-76
2023/12/31 11:00:19;;;;;;;6.28;2.00;;;;;;;;;;4952300;28;20047;-74
2023/12/31 11:02:45;;;;;;;5.45;1.70;;;14.30;99.90;;;;;;4967751;28;20042;-76
2023/12/31 11:05:13;;;;;;;5.82;1.50;;;13.90;99.90;;;;;;4965925;28;20039;-74
2023/12/31 11:07:40;;;;;;;4.30;1.10;;;14.50;99.90;;;;;;4970016;28;20229;-74
2023/12/31 11:10:08;;;;;;;5.38;1.40;;;14.10;99.90;;;;;;4969541;28;20648;-74
2023/12/31 11:12:34;;;;;;;4.80;1.77;;;14.00;99.90;;;;;;4969545;28;20174;-74
2023/12/31 11:15:09;;;;;;;5.22;1.30;;;14.10;99.90;;;;;;4962232;28;20042;-74
2023/12/31 11:17:53;;;;;;;;;;;14.00;99.90;;;;;;4970722;28;20053;-74
2023/12/31 11:20:34;;;;;;;3.63;1.02;;;13.80;99.90;;;;;;4967263;28;19918;-74
2023/12/31 11:23:15;;;;;;;4.75;1.30;;;13.70;99.90;;;;;;4966713;28;20045;-74
2023/12/31 11:25:45;;;;;;;3.08;1.15;;;13.90;99.90;;;;;;4968205;28;20474;-74
2023/12/31 11:28:10;;;;;;;4.28;1.13;;;13.90;99.90;;;;;;4965805;28;20073;-74
2023/12/31 11:30:55;;;;;;;5.35;1.35;;;14.40;99.90;;;;;;4964105;28;20062;-74
2023/12/31 11:33:24;;;;;;;2.80;1.00;;;13.90;99.90;;;;;;4972769;28;20109;-74
2023/12/31 11:35:53;;;;;;;4.90;1.20;;;13.90;99.90;;;;;;4968582;28;20501;-75
2023/12/31 11:38:22;;;;;;;4.50;1.20;;;13.90;99.90;;;;;;4966257;28;20103;-74
2023/12/31 11:40:52;;;;;;;5.05;1.40;;;13.80;99.90;;;;;;4968342;28;20073;-74
2023/12/31 11:43:20;;;;;;;5.30;1.40;;;13.70;99.90;;;;;;4963279;28;20038;-74
2023/12/31 11:45:51;;;;;;;5.38;1.27;;;13.90;99.90;;;;;;4970153;28;20256;-75
2023/12/31 11:48:24;;;;;;;3.78;1.33;;;13.50;99.90;;;;;;4949765;28;20466;-75
2023/12/31 11:50:51;;;;;;;4.22;1.40;;;13.90;99.90;;;;;;4998188;28;20039;-74
2023/12/31 11:53:17;;;;;;;4.82;1.70;;;13.90;99.90;;;;;;4963389;28;20035;-74
2023/12/31 11:55:43;;;;;;;3.88;1.30;;;14.30;99.90;;;;;;4966603;28;20062;-75
2023/12/31 11:58:09;;;;;;;3.53;1.15;;;14.00;99.90;;;;;;4972214;28;20050;-75
2023/12/31 12:00:35;;;;;;;3.78;1.20;;;13.90;99.90;;;;;;4976343;28;20042;-74
2023/12/31 12:03:02;;;;;;;3.13;1.20;;;14.00;99.90;;;;;;4973587;28;20038;-74
2023/12/31 12:05:28;;;;;;;5.18;1.40;;;13.30;99.90;;;;;;4974201;28;20034;-75
2023/12/31 12:07:54;;;;;;;5.03;1.60;;;13.60;99.90;;;;;;4977192;28;20039;-75
2023/12/31 12:10:21;;;;;;;4.90;2.35;;;13.90;99.90;;;;;;4977381;28;20129;-75
2023/12/31 12:12:47;;;;;;;4.45;1.52;;;13.70;99.90;;;;;;4973393;28;20170;-75
2023/12/31 12:15:13;;;;;;;4.50;1.30;;;14.00;99.90;;;;;;4959441;28;20137;-75
2023/12/31 12:17:38;;;;;;;3.83;1.23;;;14.20;99.90;;;;;;4976995;28;20046;-75
2023/12/31 12:20:06;;;;;;;3.83;1.20;;;13.50;99.90;;;;;;4977681;28;20046;-74
2023/12/31 12:22:33;;;;;;;5.93;1.67;;;13.70;99.90;;;;;;4977482;28;20050;-73
2023/12/31 12:24:59;;;;;;;3.90;1.25;;;13.30;99.90;;;;;;4979936;28;20039;-74
2023/12/31 12:27:25;;;;;;;5.28;1.42;;;13.30;99.90;;;;;;4976799;28;20065;-74
2023/12/31 12:29:52;;;;;;;3.22;1.20;;;13.90;99.90;;;;;;4977220;28;20062;-75
2023/12/31 12:32:18;;;;;;;3.25;1.10;;;13.90;99.90;;;;;;4976031;28;20042;-74
2023/12/31 12:34:49;;;;;;;3.30;1.23;;;13.90;99.90;;;;;;4976251;28;20070;-75
2023/12/31 12:37:15;;;;;;;4.88;1.38;;;13.50;99.90;;;;;;4976246;28;20565;-75
2023/12/31 12:39:40;;;;;;;4.90;1.20;;;13.80;99.90;;;;;;4976086;28;20125;-75
2023/12/31 12:42:06;;;;;;;6.90;1.40;;;13.70;99.90;;;;;;4972836;28;20046;-75
2023/12/31 12:44:34;;;;;;;3.80;1.20;;;14.00;99.90;;;;;;4973407;28;20038;-75